This is the latest recevied weather packets stored in our database for station/object EA4BCR. If no packets are shown the sender has not sent any weather packets the latest 10 day(s).
| Time | Temp. | Humidity | Pressure | Rain* | Wind** | Luminosity | Snow |
|---|---|---|---|---|---|---|---|
| 1777461410 | 21.11° C | 53% | 1007.8 hPa | - | - | - | - |
| 1777460810 | 21.11° C | 50% | 1007.7 hPa | - | - | - | - |
| 1777460210 | 21.67° C | 54% | 1007.7 hPa | - | - | - | - |
| 1777459610 | 20.56° C | 56% | 1008.2 hPa | - | - | - | - |
| 1777459010 | 20.56° C | 51% | 1008.1 hPa | - | - | - | - |
| 1777458410 | 20° C | 56% | 1008.5 hPa | - | - | - | - |
| 1777457810 | 19.44° C | 59% | 1008.7 hPa | - | - | - | - |
| 1777457210 | 19.44° C | 60% | 1008.8 hPa | - | - | - | - |
| 1777456610 | 18.89° C | 62% | 1008.9 hPa | - | - | - | - |
| 1777456010 | 18.89° C | 70% | 1008.9 hPa | - | - | - | - |
| 1777455410 | 17.78° C | 68% | 1009.3 hPa | - | - | - | - |
| 1777454810 | 16.67° C | 75% | 1009.7 hPa | - | - | - | - |
| 1777454210 | 16.67° C | 73% | 1009.8 hPa | - | - | - | - |
| 1777453610 | 16.11° C | 80% | 1010.2 hPa | - | - | - | - |
| 1777453010 | 16.11° C | 81% | 1010.1 hPa | - | - | - | - |
| 1777452410 | 16.11° C | 83% | 1010 hPa | - | - | - | - |
| 1777451810 | 16.11° C | 87% | 1010 hPa | - | - | - | - |
| 1777451210 | 15° C | 94% | 1010.4 hPa | - | - | - | - |
| 1777450610 | 14.44° C | 92% | 1010.5 hPa | - | - | - | - |
| 1777450010 | 15° C | 90% | 1010.5 hPa | - | - | - | - |
| 1777449410 | 15° C | 88% | 1010.5 hPa | - | - | - | - |
| 1777448810 | 15° C | 86% | 1010.5 hPa | - | - | - | - |
| 1777448210 | 15° C | 87% | 1010.5 hPa | - | - | - | - |
| 1777447610 | 15° C | 83% | 1010.1 hPa | - | - | - | - |
| 1777447010 | 13.89° C | 87% | 1010.4 hPa | - | - | - | - |
* Rain since midnight (hover to see other rain measurements)
** Current wind speed in m/s (hover to see current wind gust speed)